Etusivu
METAR-TAF:

METAR-TAF

Lentoasemat :

Ringkøbing-Skjern, Tanska

Leveyspiiri: 56-00N, Pituuspiiri: 008-21E, korkeus merenpinnasta: 5 m

Tämänhetkinen sää

Tämä raportti tehtiin 19 tuntia ja 14 minuuttia sitten, kello 14.50 UTC
Tuuli 5 kn etelästä/kaakosta
Lämpötila 7°C
Kosteus 87%
Ilmanpaine 1021 hPa
Näkyvyys 10 km tai enemmän
Muutamia pilviä 500 ft:n korkeudessa
Hajonneita pilviä 3000 ft:n korkeudessa

METAR: EKVJ 271450Z 16005KT 9999 FEW005 BKN030 07/05 Q1021

Aika: 11:04 (10:04 UTC)

Sääennuste

Tämä raportti tehtiin 22 tuntia ja 4 minuuttia sitten, kello 12.00 UTC
Ennuste voimassa 27. päivästä klo 12 UTC - 27. päivään klo 16 UTC
Tuuli 5 kn idästä/kaakosta
Näkyvyys 10 km tai enemmän
Hajonneita pilviä 3000 ft:n korkeudessa
Ajoittain
27. päivästä klo 15 UTC - 27. päivään klo 16 UTC
Näkyvyys: 0500 m
sumuhattaroita

TAF: EKVJ 271200Z 2712/2716 11005KT 9999 BKN030 TEMPO 2715/2716 0500 BCFG

Säähavainnot ja -ennusteet yli 4000 lentoasemalta (METAR- ja TAF-raportit).

Käytössä olevat sääasemat on merkitty karttaan keltaisilla ja punaisilla pisteillä.

Aseta hiiri pisteen päälle nähdäksesi sääaseman nimen.

Klikkaa sitten nähdäksesi säähavainnot ja -ennusteet.

Kartan vaihtaminen: klikkaa mustalla rastilla varustettuja vihreitä pisteitä, niin voit zoomata sisään; viivalla varustettua vihreää pistettä, niin voit zoomata ulos tai vihreitä nuolia, niin pääset viereisille kartoille.


METAR-TAF: